createdAt,value
2023-04-16T00:00:44.954Z,6.1
2023-04-16T00:01:45.315Z,6.02
2023-04-16T00:02:46.655Z,6.15
2023-04-16T00:03:48.311Z,6.12
2023-04-16T00:04:48.086Z,5.99
2023-04-16T00:05:48.955Z,6.13
2023-04-16T00:06:48.918Z,6.19
2023-04-16T00:07:49.678Z,6.1
2023-04-16T00:08:50.163Z,6.16
2023-04-16T00:09:50.676Z,6.22
2023-04-16T00:10:51.752Z,6.25
2023-04-16T00:11:52.840Z,6.16
2023-04-16T00:12:53.586Z,6.25
2023-04-16T00:13:54.052Z,6.12
2023-04-16T00:14:54.505Z,6.1
2023-04-16T00:15:55.206Z,6.1
2023-04-16T00:16:56.039Z,6.13
2023-04-16T00:17:56.200Z,6.17
2023-04-16T00:18:56.829Z,6.07
2023-04-16T00:19:57.154Z,5.99
2023-04-16T00:20:57.871Z,5.98
2023-04-16T00:21:58.904Z,6.12
2023-04-16T00:22:58.983Z,6.17
2023-04-16T00:23:59.485Z,5.98
2023-04-16T00:25:00.170Z,5.99
2023-04-16T00:26:01.120Z,6.09
2023-04-16T00:27:01.629Z,6.05
2023-04-16T00:28:02.766Z,6.07
2023-04-16T00:29:02.984Z,6.01
2023-04-16T00:30:03.321Z,6.05
2023-04-16T00:31:03.705Z,6.05
2023-04-16T00:32:04.133Z,6.07
2023-04-16T00:33:04.636Z,5.92
2023-04-16T00:34:05.362Z,5.88
2023-04-16T00:35:06.134Z,6.07
2023-04-16T00:36:06.421Z,5.99
2023-04-16T00:37:07.511Z,6.06
2023-04-16T00:38:07.826Z,5.98
2023-04-16T00:39:09.211Z,6.05
2023-04-16T00:40:08.671Z,6.07
2023-04-16T00:41:09.413Z,6.06
2023-04-16T00:42:10.684Z,6.05
2023-04-16T00:43:11.286Z,6.02
2023-04-16T00:44:11.953Z,6.09
2023-04-16T00:45:12.373Z,6.01
2023-04-16T00:46:13.317Z,6.02
2023-04-16T00:47:13.377Z,6.12
2023-04-16T00:48:13.732Z,6.05
2023-04-16T00:49:14.806Z,6.1
2023-04-16T00:50:15.540Z,6.09
2023-04-16T00:51:16.046Z,6.1
2023-04-16T00:52:16.820Z,6.07
2023-04-16T00:53:17.312Z,5.94
2023-04-16T00:54:18.004Z,5.99
2023-04-16T00:55:18.506Z,6.05
2023-04-16T00:56:21.051Z,5.98
2023-04-16T00:57:19.745Z,6.02
2023-04-16T00:58:20.225Z,6.06
2023-04-16T00:59:21.321Z,6.1
2023-04-16T01:00:21.821Z,5.99
2023-04-16T01:01:22.700Z,6.01
2023-04-16T01:02:24.117Z,6.02
2023-04-16T01:03:24.490Z,5.99
2023-04-16T01:04:25.242Z,6.05
2023-04-16T01:05:25.178Z,6.1
2023-04-16T01:06:25.865Z,6.07
2023-04-16T01:07:27.032Z,6.1
2023-04-16T01:08:27.707Z,6.19
2023-04-16T01:09:28.388Z,6.02
2023-04-16T01:10:28.934Z,6.01
2023-04-16T01:11:29.209Z,6.02
2023-04-16T01:12:29.921Z,6.15
2023-04-16T01:13:30.629Z,6.1
2023-04-16T01:14:31.344Z,6.15
2023-04-16T01:15:31.896Z,6.19
2023-04-16T01:16:32.625Z,6.17
2023-04-16T01:17:33.524Z,6.15
2023-04-16T01:18:33.743Z,6.22
2023-04-16T01:19:34.462Z,6.29
2023-04-16T01:20:34.960Z,6.25
2023-04-16T01:21:35.469Z,6.2
2023-04-16T01:22:36.484Z,6.2
2023-04-16T01:23:37.186Z,6.16
2023-04-16T01:24:37.858Z,6.2
2023-04-16T01:25:37.961Z,6.22
2023-04-16T01:26:38.512Z,6.2
2023-04-16T01:27:39.000Z,6.26
2023-04-16T01:28:39.066Z,6.17
2023-04-16T01:29:40.145Z,6.15
2023-04-16T01:30:40.453Z,6.16
2023-04-16T01:31:41.081Z,6.28
2023-04-16T01:32:41.305Z,6.26
2023-04-16T01:33:41.728Z,6.2
2023-04-16T01:34:42.027Z,6.13
2023-04-16T01:35:42.603Z,6.09
2023-04-16T01:36:43.173Z,6.15
2023-04-16T01:37:43.191Z,6.13
2023-04-16T01:38:43.664Z,6.09
2023-04-16T01:39:44.179Z,6.16
2023-04-16T01:40:44.685Z,6.12
2023-04-16T01:41:45.361Z,6.13
2023-04-16T01:42:45.860Z,5.99
2023-04-16T01:43:46.526Z,6.15
2023-04-16T01:44:47.354Z,6.1
2023-04-16T01:45:47.664Z,5.98
2023-04-16T01:46:48.627Z,6.01
2023-04-16T01:47:49.590Z,6.02
2023-04-16T01:48:50.176Z,6.12
2023-04-16T01:49:51.261Z,6.06
2023-04-16T01:50:51.742Z,6.09
2023-04-16T01:51:52.647Z,6.05
2023-04-16T01:52:53.646Z,6.05
2023-04-16T01:53:54.133Z,6.07
2023-04-16T01:54:55.020Z,5.9
2023-04-16T01:55:55.433Z,5.94
2023-04-16T01:56:56.098Z,5.92
2023-04-16T01:57:56.423Z,5.95
2023-04-16T01:58:56.906Z,6.05
2023-04-16T01:59:57.606Z,5.91
2023-04-16T02:00:58.298Z,6.01
2023-04-16T02:01:59.255Z,5.91
2023-04-16T02:03:00.679Z,5.99
2023-04-16T02:04:01.387Z,5.92
2023-04-16T02:05:01.542Z,5.95
2023-04-16T02:06:02.006Z,5.95
2023-04-16T02:07:02.127Z,5.95
2023-04-16T02:08:03.215Z,5.98
2023-04-16T02:09:03.525Z,5.94
2023-04-16T02:10:04.259Z,5.94
2023-04-16T02:11:04.765Z,5.94
2023-04-16T02:12:05.252Z,5.99
2023-04-16T02:13:05.952Z,5.98
2023-04-16T02:14:06.644Z,6.09
2023-04-16T02:15:06.923Z,6.06
2023-04-16T02:16:07.918Z,6.07
2023-04-16T02:17:08.241Z,6.05
2023-04-16T02:18:09.197Z,5.99
2023-04-16T02:19:10.378Z,6.02
2023-04-16T02:20:09.952Z,6.07
2023-04-16T02:21:10.679Z,6.13
2023-04-16T02:22:11.384Z,6.12
2023-04-16T02:23:12.334Z,6.01
2023-04-16T02:24:12.633Z,5.99
2023-04-16T02:25:12.966Z,6.02
2023-04-16T02:26:13.013Z,5.99
2023-04-16T02:27:13.981Z,5.98
2023-04-16T02:28:14.683Z,6.07
2023-04-16T02:29:15.253Z,5.97
2023-04-16T02:30:15.999Z,6.09
2023-04-16T02:31:16.540Z,6.15
2023-04-16T02:32:17.621Z,6.05
2023-04-16T02:33:17.960Z,6.02
2023-04-16T02:34:18.276Z,6.06
2023-04-16T02:35:18.807Z,6.07
2023-04-16T02:36:19.203Z,6.07
2023-04-16T02:37:19.906Z,6.1
2023-04-16T02:38:20.090Z,6.16
2023-04-16T02:39:20.368Z,6.01
2023-04-16T02:40:20.667Z,5.99
2023-04-16T02:41:21.271Z,6.02
2023-04-16T02:42:22.200Z,6.13
2023-04-16T02:43:22.335Z,6.12
2023-04-16T02:44:22.820Z,6.16
2023-04-16T02:45:23.338Z,6.1
2023-04-16T02:46:23.332Z,6.15
2023-04-16T02:47:24.324Z,6.15
2023-04-16T02:48:24.854Z,6.07
2023-04-16T02:49:24.743Z,6.12
2023-04-16T02:50:25.467Z,6.07
2023-04-16T02:51:26.157Z,6.13
2023-04-16T02:52:26.632Z,6.09
2023-04-16T02:53:27.435Z,6.13
2023-04-16T02:54:28.540Z,6.12
2023-04-16T02:55:29.559Z,6.17
2023-04-16T02:56:29.981Z,6.13
2023-04-16T02:57:30.283Z,6.1
2023-04-16T02:58:30.799Z,6.02
2023-04-16T02:59:31.484Z,6.13
2023-04-16T03:00:32.192Z,6.01
2023-04-16T03:01:33.038Z,6.15
2023-04-16T03:02:33.502Z,6.06
2023-04-16T03:03:33.520Z,6.02
2023-04-16T03:04:33.859Z,6.09
2023-04-16T03:05:34.891Z,6.09
2023-04-16T03:06:35.574Z,6.01
2023-04-16T03:07:36.072Z,6.12
2023-04-16T03:08:36.297Z,6.17
2023-04-16T03:09:37.009Z,5.98
2023-04-16T03:10:37.734Z,6.01
2023-04-16T03:11:38.460Z,6.12
2023-04-16T03:12:38.364Z,6.07
2023-04-16T03:13:39.103Z,6.12
2023-04-16T03:14:39.805Z,6.1
2023-04-16T03:15:40.485Z,6.15
2023-04-16T03:16:41.127Z,6.15
2023-04-16T03:17:42.190Z,6.25
2023-04-16T03:18:41.829Z,6.19
2023-04-16T03:19:42.309Z,6.2
2023-04-16T03:20:42.800Z,6.1
2023-04-16T03:21:43.330Z,6.25
2023-04-16T03:22:44.220Z,6.2
2023-04-16T03:23:45.188Z,6.2
2023-04-16T03:24:45.305Z,6.19
2023-04-16T03:25:46.013Z,6.22
2023-04-16T03:26:46.785Z,6.2
2023-04-16T03:27:47.464Z,6.17
2023-04-16T03:28:48.161Z,6.13
2023-04-16T03:29:49.097Z,6.28
2023-04-16T03:30:49.608Z,6.28
2023-04-16T03:31:50.411Z,6.17
2023-04-16T03:32:50.948Z,6.16
2023-04-16T03:33:50.792Z,6.25
2023-04-16T03:34:51.173Z,6.12
2023-04-16T03:35:52.179Z,6.13
2023-04-16T03:36:52.768Z,6.16
2023-04-16T03:37:53.045Z,6.22
2023-04-16T03:38:54.021Z,6.16
2023-04-16T03:39:54.333Z,6.2
2023-04-16T03:40:55.217Z,6.16
2023-04-16T03:41:55.756Z,6.2
2023-04-16T03:42:56.637Z,6.2
2023-04-16T03:43:57.112Z,6.22
2023-04-16T03:44:57.797Z,6.16
2023-04-16T03:45:58.358Z,6.15
2023-04-16T03:46:59.085Z,6.22
2023-04-16T03:47:59.489Z,6.2
2023-04-16T03:48:59.214Z,6.1
2023-04-16T03:49:59.944Z,6.22
2023-04-16T03:51:00.462Z,6.15
2023-04-16T03:52:01.392Z,6.13
2023-04-16T03:53:02.308Z,6.12
2023-04-16T03:54:02.270Z,6.1
2023-04-16T03:55:02.757Z,6.12
2023-04-16T03:56:03.299Z,6.1
2023-04-16T03:57:03.723Z,6.12
2023-04-16T03:58:04.423Z,6.2
2023-04-16T03:59:05.130Z,6.13
2023-04-16T04:00:05.987Z,6.2
2023-04-16T04:01:06.207Z,6.25
2023-04-16T04:02:07.209Z,6.17
2023-04-16T04:03:08.803Z,6.15
2023-04-16T04:04:08.867Z,6.19
2023-04-16T04:05:09.326Z,6.13
2023-04-16T04:06:08.835Z,6.13
2023-04-16T04:07:10.025Z,6.17
2023-04-16T04:08:10.736Z,6.13
2023-04-16T04:09:11.305Z,6.07
2023-04-16T04:10:11.189Z,6.05
2023-04-16T04:11:11.494Z,6.13
2023-04-16T04:12:12.025Z,6.15
2023-04-16T04:13:12.760Z,6.16
2023-04-16T04:14:13.469Z,6.17
2023-04-16T04:15:13.979Z,6.12
2023-04-16T04:16:14.675Z,6.2
2023-04-16T04:17:15.240Z,6.13
2023-04-16T04:18:15.568Z,6.17
2023-04-16T04:19:17.078Z,6.22
2023-04-16T04:21:17.222Z,6.31
2023-04-16T04:22:17.997Z,6.2
2023-04-16T04:23:18.906Z,6.32
2023-04-16T04:24:19.864Z,6.25
2023-04-16T04:25:20.546Z,6.19
2023-04-16T04:26:21.487Z,6.28
2023-04-16T04:27:21.937Z,6.28
2023-04-16T04:28:22.850Z,6.36
2023-04-16T04:29:23.371Z,6.28
2023-04-16T04:30:24.249Z,6.38
2023-04-16T04:31:25.126Z,6.25
2023-04-16T04:32:25.815Z,6.31
2023-04-16T04:33:26.432Z,6.28
2023-04-16T04:34:27.128Z,6.36
2023-04-16T04:35:27.834Z,6.25
2023-04-16T04:36:28.105Z,6.28
2023-04-16T04:37:28.723Z,6.28
2023-04-16T04:38:29.018Z,6.35
2023-04-16T04:39:29.777Z,6.2
2023-04-16T04:40:30.272Z,6.29
2023-04-16T04:41:30.964Z,6.31
2023-04-16T04:42:31.304Z,6.26
2023-04-16T04:43:31.988Z,6.17
2023-04-16T04:44:32.668Z,6.15
2023-04-16T04:45:35.452Z,6.22
2023-04-16T04:47:33.482Z,6.19
2023-04-16T04:48:34.203Z,6.12
2023-04-16T04:49:34.878Z,6.07
2023-04-16T04:50:35.582Z,6.09
2023-04-16T04:51:35.860Z,6.17
2023-04-16T04:52:37.002Z,6.06
2023-04-16T04:53:37.544Z,6.05
2023-04-16T04:54:38.715Z,6.17
2023-04-16T04:55:39.108Z,6.06
2023-04-16T04:56:40.165Z,6.02
2023-04-16T04:57:40.606Z,5.98
2023-04-16T04:58:41.720Z,6.09
2023-04-16T04:59:42.016Z,5.99
2023-04-16T05:00:42.912Z,6.1
2023-04-16T05:01:43.889Z,6.02
2023-04-16T05:02:45.104Z,6.06
2023-04-16T05:03:45.481Z,6.07
2023-04-16T05:04:45.319Z,6.07
2023-04-16T05:05:45.911Z,6.07
2023-04-16T05:06:46.601Z,6.06
2023-04-16T05:07:47.951Z,6.02
2023-04-16T05:08:47.840Z,6.09
2023-04-16T05:09:48.612Z,6.13
2023-04-16T05:10:49.129Z,6.13
2023-04-16T05:11:49.439Z,6.06
2023-04-16T05:12:50.506Z,6.09
2023-04-16T05:13:50.986Z,6.1
2023-04-16T05:14:51.562Z,5.99
2023-04-16T05:15:52.480Z,6.07
2023-04-16T05:16:53.500Z,5.99
2023-04-16T05:17:54.487Z,6.02
2023-04-16T05:18:54.944Z,5.97
2023-04-16T05:19:55.434Z,6.06
2023-04-16T05:20:56.269Z,6.07
2023-04-16T05:21:56.828Z,6.01
2023-04-16T05:22:57.533Z,6.12
2023-04-16T05:23:57.812Z,6.01
2023-04-16T05:24:58.790Z,6.07
2023-04-16T05:25:59.585Z,6.09
2023-04-16T05:27:00.531Z,6.12
2023-04-16T05:28:00.751Z,5.98
2023-04-16T05:29:01.737Z,6.09
2023-04-16T05:30:01.677Z,6.1
2023-04-16T05:31:02.076Z,5.98
2023-04-16T05:32:02.836Z,6.09
2023-04-16T05:33:03.634Z,6.1
2023-04-16T05:34:03.520Z,6.1
2023-04-16T05:35:03.635Z,6.1
2023-04-16T05:36:04.652Z,6.28
2023-04-16T05:37:04.949Z,6.19
2023-04-16T05:38:05.361Z,6.22
2023-04-16T05:39:05.683Z,6.25
2023-04-16T05:40:06.667Z,6.25
2023-04-16T05:41:07.161Z,6.22
2023-04-16T05:42:08.067Z,6.25
2023-04-16T05:43:08.604Z,6.25
2023-04-16T05:44:09.514Z,6.34
2023-04-16T05:45:10.441Z,6.38
2023-04-16T05:46:11.076Z,6.29
2023-04-16T05:47:11.392Z,6.19
2023-04-16T05:48:12.122Z,6.29
2023-04-16T05:49:13.645Z,6.34
2023-04-16T05:50:13.978Z,6.32
2023-04-16T05:51:14.678Z,6.32
2023-04-16T05:52:15.001Z,6.31
2023-04-16T05:53:15.959Z,6.31
2023-04-16T05:54:16.244Z,6.36
2023-04-16T05:55:17.549Z,6.41
2023-04-16T05:56:17.847Z,6.38
2023-04-16T05:57:18.324Z,6.35
2023-04-16T05:58:19.142Z,6.46
2023-04-16T05:59:19.633Z,6.38
2023-04-16T06:00:20.146Z,6.36
2023-04-16T06:01:21.045Z,6.41
2023-04-16T06:02:21.840Z,6.39
2023-04-16T06:03:22.411Z,6.41
2023-04-16T06:04:22.919Z,6.41
2023-04-16T06:05:23.040Z,6.49
2023-04-16T06:06:23.303Z,6.49
2023-04-16T06:07:23.599Z,6.5
2023-04-16T06:08:24.832Z,6.46
2023-04-16T06:09:25.309Z,6.56
2023-04-16T06:10:26.085Z,6.49
2023-04-16T06:11:26.794Z,6.46
2023-04-16T06:12:26.797Z,6.56
2023-04-16T06:13:27.633Z,6.47
2023-04-16T06:14:28.298Z,6.49
2023-04-16T06:15:29.022Z,6.62
2023-04-16T06:16:28.892Z,6.64
2023-04-16T06:17:29.957Z,6.49
2023-04-16T06:18:30.594Z,6.6
2023-04-16T06:19:31.299Z,6.6
2023-04-16T06:20:32.049Z,6.56
2023-04-16T06:21:32.541Z,6.59
2023-04-16T06:22:33.690Z,6.68
2023-04-16T06:23:34.406Z,6.71
2023-04-16T06:24:34.711Z,6.56
2023-04-16T06:25:35.558Z,6.68
2023-04-16T06:26:35.874Z,6.7
2023-04-16T06:27:36.448Z,6.62
2023-04-16T06:28:36.765Z,6.67
2023-04-16T06:29:46.266Z,6.75
2023-04-16T06:31:38.075Z,6.75
2023-04-16T06:32:38.758Z,6.8
2023-04-16T06:33:39.128Z,6.8
2023-04-16T06:34:39.874Z,6.78
2023-04-16T06:35:40.578Z,6.86
2023-04-16T06:36:41.082Z,6.89
2023-04-16T06:37:41.814Z,6.92
2023-04-16T06:38:42.215Z,6.92
2023-04-16T06:39:42.911Z,6.95
2023-04-16T06:40:43.887Z,7.03
2023-04-16T06:41:44.644Z,7.03
2023-04-16T06:42:46.130Z,7.03
2023-04-16T06:43:45.848Z,7.03
2023-04-16T06:44:46.542Z,7.08
2023-04-16T06:45:47.434Z,7.04
2023-04-16T06:46:48.383Z,7
2023-04-16T06:47:48.550Z,7.05
2023-04-16T06:49:48.978Z,7.1
2023-04-16T06:50:49.065Z,7.03
2023-04-16T06:51:49.557Z,7.03
2023-04-16T06:52:50.113Z,7.05
2023-04-16T06:53:50.817Z,7.05
2023-04-16T06:54:51.151Z,7.08
2023-04-16T06:55:52.470Z,7.08
2023-04-16T06:56:52.958Z,7.19
2023-04-16T06:57:54.066Z,7.04
2023-04-16T06:58:54.673Z,7.13
2023-04-16T06:59:55.555Z,7.08
2023-04-16T07:00:56.564Z,7.21
2023-04-16T07:01:56.988Z,7.15
2023-04-16T07:02:58.874Z,7.22
2023-04-16T07:03:57.618Z,7.21
2023-04-16T07:04:57.430Z,7.23
2023-04-16T07:05:57.933Z,7.25
2023-04-16T07:06:58.418Z,7.25
2023-04-16T07:07:58.760Z,7.36
2023-04-16T07:08:59.393Z,7.43
2023-04-16T07:09:59.896Z,7.37
2023-04-16T07:11:00.855Z,7.43
2023-04-16T07:12:01.392Z,7.47
2023-04-16T07:13:02.090Z,7.56
2023-04-16T07:14:03.113Z,7.51
2023-04-16T07:15:02.806Z,7.62
2023-04-16T07:16:03.542Z,7.55
2023-04-16T07:17:03.831Z,7.61
2023-04-16T07:18:04.706Z,7.61
2023-04-16T07:19:05.045Z,7.55
2023-04-16T07:20:05.795Z,7.56
2023-04-16T07:21:06.510Z,7.59
2023-04-16T07:22:07.048Z,7.67
2023-04-16T07:23:07.339Z,7.64
2023-04-16T07:24:08.471Z,7.7
2023-04-16T07:25:08.998Z,7.67
2023-04-16T07:26:10.212Z,7.64
2023-04-16T07:27:10.721Z,7.64
2023-04-16T07:28:11.286Z,7.64
2023-04-16T07:29:12.402Z,7.67
2023-04-16T07:30:12.437Z,7.66
2023-04-16T07:31:13.155Z,7.66
2023-04-16T07:32:16.035Z,7.61
2023-04-16T07:33:13.977Z,7.7
2023-04-16T07:34:15.064Z,7.75
2023-04-16T07:35:15.034Z,7.81
2023-04-16T07:36:15.768Z,7.78
2023-04-16T07:37:16.540Z,7.85
2023-04-16T07:38:16.821Z,7.85
2023-04-16T07:39:18.448Z,7.85
2023-04-16T07:40:18.940Z,7.87
2023-04-16T07:41:19.989Z,7.91
2023-04-16T07:42:20.692Z,7.91
2023-04-16T07:43:21.600Z,8.01
2023-04-16T07:44:22.141Z,8.05
2023-04-16T07:45:22.867Z,8.09
2023-04-16T07:46:28.314Z,8.06
2023-04-16T07:47:24.722Z,8.09
2023-04-16T07:48:25.438Z,8.02
2023-04-16T07:49:25.696Z,8.06
2023-04-16T07:50:26.651Z,8.17
2023-04-16T07:51:27.560Z,8.16
2023-04-16T07:52:28.062Z,8.11
2023-04-16T07:53:28.963Z,8.08
2023-04-16T07:54:29.764Z,7.98
2023-04-16T07:55:30.845Z,7.9
2023-04-16T07:56:31.627Z,7.84
2023-04-16T07:57:32.124Z,7.84
2023-04-16T07:58:32.659Z,7.9
2023-04-16T07:59:33.469Z,7.98
2023-04-16T08:00:33.375Z,7.9
2023-04-16T08:01:33.492Z,7.96
2023-04-16T08:02:34.685Z,7.95
2023-04-16T08:03:35.844Z,7.96
2023-04-16T08:04:36.185Z,8.06
2023-04-16T08:05:35.993Z,8.02
2023-04-16T08:06:36.515Z,8.11
2023-04-16T08:07:40.006Z,8.02
2023-04-16T08:10:38.297Z,8.17
2023-04-16T08:11:39.113Z,8.17
2023-04-16T08:12:39.251Z,8.18
2023-04-16T08:13:39.962Z,8.17
2023-04-16T08:14:40.711Z,8.23
2023-04-16T08:15:41.357Z,8.16
2023-04-16T08:16:42.246Z,8.17
2023-04-16T08:17:42.933Z,8.28
2023-04-16T08:18:43.999Z,8.27
2023-04-16T08:19:44.405Z,8.32
2023-04-16T08:20:45.324Z,8.32
2023-04-16T08:21:45.833Z,8.44
2023-04-16T08:22:46.523Z,8.39
2023-04-16T08:23:46.816Z,8.44
2023-04-16T08:24:47.738Z,8.52
2023-04-16T08:25:48.032Z,8.49
2023-04-16T08:26:48.808Z,8.52
2023-04-16T08:27:49.382Z,8.5
2023-04-16T08:28:50.064Z,8.39
2023-04-16T08:29:50.198Z,8.42
2023-04-16T08:30:50.746Z,8.41
2023-04-16T08:31:51.784Z,8.41
2023-04-16T08:32:55.259Z,8.44
2023-04-16T08:34:54.042Z,8.42
2023-04-16T08:35:54.578Z,8.41
2023-04-16T08:36:55.080Z,8.34
2023-04-16T08:37:55.891Z,8.34
2023-04-16T08:38:56.222Z,8.31
2023-04-16T08:39:56.486Z,8.35
2023-04-16T08:40:56.767Z,8.27
2023-04-16T08:41:57.785Z,8.34
2023-04-16T08:42:58.098Z,8.35
2023-04-16T08:43:58.780Z,8.35
2023-04-16T08:44:59.305Z,8.39
2023-04-16T08:46:00.263Z,8.49
2023-04-16T08:47:00.589Z,8.41
2023-04-16T08:48:00.975Z,8.41
2023-04-16T08:49:01.572Z,8.38
2023-04-16T08:50:04.279Z,8.36
2023-04-16T08:52:03.472Z,8.38
2023-04-16T08:53:03.949Z,8.32
2023-04-16T08:54:04.469Z,8.32
2023-04-16T08:55:05.395Z,8.17
2023-04-16T08:56:05.698Z,8.26
2023-04-16T08:57:06.906Z,8.23
2023-04-16T08:58:07.392Z,8.31
2023-04-16T08:59:08.537Z,8.28
2023-04-16T09:00:09.086Z,8.31
2023-04-16T09:01:09.979Z,8.34
2023-04-16T09:02:11.014Z,8.32
2023-04-16T09:03:11.377Z,8.41
2023-04-16T09:04:12.554Z,8.46
2023-04-16T09:05:12.459Z,8.5
2023-04-16T09:06:13.170Z,8.42
2023-04-16T09:07:14.076Z,8.46
2023-04-16T09:08:14.559Z,8.39
2023-04-16T09:09:15.964Z,8.5
2023-04-16T09:10:16.436Z,8.59
2023-04-16T09:11:16.751Z,8.64
2023-04-16T09:12:17.744Z,8.61
2023-04-16T09:13:18.645Z,8.71
2023-04-16T09:14:19.551Z,8.79
2023-04-16T09:15:20.267Z,8.78
2023-04-16T09:16:20.454Z,8.87
2023-04-16T09:17:21.298Z,8.96
2023-04-16T09:18:21.732Z,8.97
2023-04-16T09:19:22.670Z,9.03
2023-04-16T09:20:23.252Z,8.96
2023-04-16T09:21:24.577Z,8.9
2023-04-16T09:22:23.868Z,9.03
2023-04-16T09:23:24.763Z,9.08
2023-04-16T09:24:25.045Z,9.02
2023-04-16T09:25:25.757Z,9.05
2023-04-16T09:26:26.307Z,9.03
2023-04-16T09:27:28.335Z,9.03
2023-04-16T09:29:28.337Z,9.12
2023-04-16T09:30:29.055Z,9.12
2023-04-16T09:31:29.673Z,9.11
2023-04-16T09:32:30.820Z,9.09
2023-04-16T09:33:34.491Z,9.09
2023-04-16T09:34:32.388Z,9.16
2023-04-16T09:35:33.381Z,9.21
2023-04-16T09:36:34.108Z,9.26
2023-04-16T09:37:34.597Z,9.27
2023-04-16T09:38:35.295Z,9.16
2023-04-16T09:39:35.566Z,9.16
2023-04-16T09:40:36.107Z,9.26
2023-04-16T09:41:36.491Z,9.21
2023-04-16T09:42:37.534Z,9.27
2023-04-16T09:43:38.290Z,9.33
2023-04-16T09:44:38.801Z,9.27
2023-04-16T09:45:39.352Z,9.29
2023-04-16T09:46:39.895Z,9.26
2023-04-16T09:47:40.591Z,9.29
2023-04-16T09:48:40.999Z,9.24
2023-04-16T09:49:41.667Z,9.09
2023-04-16T09:50:42.179Z,9.13
2023-04-16T09:51:43.095Z,9.18
2023-04-16T09:52:43.980Z,9.11
2023-04-16T09:53:44.464Z,9.12
2023-04-16T09:54:45.359Z,9.11
2023-04-16T09:55:47.411Z,9.11
2023-04-16T09:56:46.300Z,9.15
2023-04-16T09:57:47.576Z,9.08
2023-04-16T09:58:48.069Z,9.11
2023-04-16T09:59:48.780Z,9.19
2023-04-16T10:00:49.773Z,9.24
2023-04-16T10:01:50.367Z,9.24
2023-04-16T10:02:51.103Z,9.31
2023-04-16T10:03:50.447Z,9.3
2023-04-16T10:04:50.934Z,9.22
2023-04-16T10:05:50.993Z,9.3
2023-04-16T10:06:51.375Z,9.39
2023-04-16T10:07:52.164Z,9.29
2023-04-16T10:08:55.256Z,9.33
2023-04-16T10:11:55.333Z,9.49
2023-04-16T10:12:56.544Z,9.52
2023-04-16T10:13:56.460Z,9.54
2023-04-16T10:14:56.945Z,9.58
2023-04-16T10:15:57.483Z,9.55
2023-04-16T10:16:58.313Z,9.55
2023-04-16T10:17:59.433Z,9.63
2023-04-16T10:19:00.252Z,9.63
2023-04-16T10:20:00.640Z,9.58
2023-04-16T10:21:01.471Z,9.63
2023-04-16T10:22:02.462Z,9.7
2023-04-16T10:23:02.599Z,9.7
2023-04-16T10:24:02.900Z,9.73
2023-04-16T10:25:03.477Z,9.7
2023-04-16T10:26:04.689Z,9.66
2023-04-16T10:27:04.982Z,9.74
2023-04-16T10:28:06.190Z,9.63
2023-04-16T10:29:05.890Z,9.59
2023-04-16T10:30:06.992Z,9.52
2023-04-16T10:31:07.264Z,9.42
2023-04-16T10:32:07.244Z,9.52
2023-04-16T10:33:08.187Z,9.47
2023-04-16T10:34:08.782Z,9.47
2023-04-16T10:35:09.284Z,9.51
2023-04-16T10:36:13.806Z,9.59
2023-04-16T10:38:10.906Z,9.49
2023-04-16T10:39:13.065Z,9.55
2023-04-16T10:40:12.428Z,9.54
2023-04-16T10:41:13.335Z,9.67
2023-04-16T10:42:13.865Z,9.67
2023-04-16T10:43:14.017Z,9.62
2023-04-16T10:44:14.534Z,9.66
2023-04-16T10:45:15.255Z,9.73
2023-04-16T10:46:16.083Z,9.7
2023-04-16T10:47:16.497Z,9.67
2023-04-16T10:48:16.634Z,9.64
2023-04-16T10:49:17.681Z,9.62
2023-04-16T10:50:18.831Z,9.64
2023-04-16T10:51:18.889Z,9.67
2023-04-16T10:52:19.802Z,9.59
2023-04-16T10:53:20.947Z,9.62
2023-04-16T10:54:21.057Z,9.73
2023-04-16T10:55:21.610Z,9.7
2023-04-16T10:56:22.119Z,9.77
2023-04-16T10:57:22.862Z,9.73
2023-04-16T10:58:24.102Z,9.72
2023-04-16T10:59:24.622Z,9.66
2023-04-16T11:00:25.324Z,9.69
2023-04-16T11:01:26.434Z,9.67
2023-04-16T11:02:28.429Z,9.64
2023-04-16T11:03:27.310Z,9.52
2023-04-16T11:04:28.324Z,9.52
2023-04-16T11:05:28.446Z,9.44
2023-04-16T11:06:28.963Z,9.48
2023-04-16T11:07:29.471Z,9.47
2023-04-16T11:08:32.217Z,9.45
2023-04-16T11:10:30.603Z,9.54
2023-04-16T11:11:31.385Z,9.52
2023-04-16T11:12:31.893Z,9.52
2023-04-16T11:13:32.655Z,9.54
2023-04-16T11:14:32.736Z,9.52
2023-04-16T11:15:33.227Z,9.52
2023-04-16T11:16:34.258Z,9.58
2023-04-16T11:17:35.224Z,9.52
2023-04-16T11:18:35.930Z,9.54
2023-04-16T11:19:35.962Z,9.54
2023-04-16T11:20:36.507Z,9.59
2023-04-16T11:21:37.323Z,9.48
2023-04-16T11:22:38.452Z,9.51
2023-04-16T11:23:39.189Z,9.55
2023-04-16T11:24:40.078Z,9.52
2023-04-16T11:25:40.606Z,9.52
2023-04-16T11:26:41.743Z,9.52
2023-04-16T11:27:42.448Z,9.36
2023-04-16T11:28:43.434Z,9.37
2023-04-16T11:29:47.650Z,9.29
2023-04-16T11:30:44.405Z,9.29
2023-04-16T11:31:44.883Z,9.3
2023-04-16T11:32:45.551Z,9.26
2023-04-16T11:33:46.451Z,9.27
2023-04-16T11:34:47.155Z,9.26
2023-04-16T11:35:47.632Z,9.24
2023-04-16T11:36:48.387Z,9.29
2023-04-16T11:37:49.099Z,9.26
2023-04-16T11:38:49.835Z,9.11
2023-04-16T11:39:50.734Z,9.05
2023-04-16T11:40:51.430Z,9.08
2023-04-16T11:41:51.888Z,9
2023-04-16T11:42:52.445Z,9.12
2023-04-16T11:43:53.586Z,9.08
2023-04-16T11:44:53.506Z,9
2023-04-16T11:45:53.986Z,9.16
2023-04-16T11:46:54.140Z,9.13
2023-04-16T11:47:55.317Z,9.13
2023-04-16T11:48:56.149Z,9.18
2023-04-16T11:49:56.152Z,9.16
2023-04-16T11:50:57.110Z,9.16
2023-04-16T11:51:57.877Z,9.18
2023-04-16T11:52:58.397Z,9.27
2023-04-16T11:53:59.205Z,9.33
2023-04-16T11:54:59.441Z,9.27
2023-04-16T11:56:00.358Z,9.33
2023-04-16T11:57:01.109Z,9.3
2023-04-16T11:58:01.657Z,9.12
2023-04-16T11:59:02.009Z,9.08
2023-04-16T12:00:11.072Z,9.09
2023-04-16T12:02:03.860Z,9.13
2023-04-16T12:03:04.560Z,8.92
2023-04-16T12:04:05.018Z,9.08
2023-04-16T12:05:05.088Z,9.08
2023-04-16T12:06:05.825Z,9.02
2023-04-16T12:07:07.120Z,9.15
2023-04-16T12:08:08.036Z,9.09
2023-04-16T12:09:07.879Z,9.12
2023-04-16T12:10:08.393Z,9.09
2023-04-16T12:11:08.906Z,9.09
2023-04-16T12:12:09.586Z,9.11
2023-04-16T12:13:10.367Z,9.09
2023-04-16T12:14:11.552Z,9.11
2023-04-16T12:15:12.066Z,9.16
2023-04-16T12:16:13.073Z,9.09
2023-04-16T12:17:13.246Z,9.12
2023-04-16T12:18:13.414Z,9.12
2023-04-16T12:19:14.322Z,9.18
2023-04-16T12:20:15.017Z,9.12
2023-04-16T12:21:15.701Z,9.11
2023-04-16T12:22:16.276Z,9.12
2023-04-16T12:23:16.560Z,9.08
2023-04-16T12:24:17.306Z,9.13
2023-04-16T12:25:17.817Z,9.16
2023-04-16T12:26:18.579Z,9.12
2023-04-16T12:27:19.298Z,9.05
2023-04-16T12:28:20.198Z,9.05
2023-04-16T12:29:21.174Z,9.09
2023-04-16T12:30:21.888Z,9.08
2023-04-16T12:31:23.010Z,9.11
2023-04-16T12:32:23.552Z,9.11
2023-04-16T12:33:23.921Z,9.12
2023-04-16T12:34:49.600Z,9.09
2023-04-16T12:35:24.797Z,9.12
2023-04-16T12:36:25.422Z,9.09
2023-04-16T12:37:26.204Z,9.15
2023-04-16T12:38:30.056Z,9.13
2023-04-16T12:40:28.186Z,9.11
2023-04-16T12:41:28.465Z,9.08
2023-04-16T12:42:28.926Z,9.11
2023-04-16T12:43:29.222Z,9.09
2023-04-16T12:44:30.407Z,9.13
2023-04-16T12:45:31.384Z,9.12
2023-04-16T12:46:32.178Z,9.16
2023-04-16T12:47:32.593Z,9.16
2023-04-16T12:48:33.175Z,9.19
2023-04-16T12:49:33.470Z,9.18
2023-04-16T12:50:34.187Z,9.15
2023-04-16T12:51:34.560Z,9.09
2023-04-16T12:52:35.750Z,9.12
2023-04-16T12:53:36.486Z,9.12
2023-04-16T12:54:37.002Z,9.09
2023-04-16T12:55:37.311Z,9.08
2023-04-16T12:56:38.018Z,9
2023-04-16T12:57:38.759Z,9.05
2023-04-16T12:58:39.300Z,8.99
2023-04-16T12:59:40.284Z,8.97
2023-04-16T13:00:40.766Z,8.99
2023-04-16T13:01:41.426Z,9.02
2023-04-16T13:02:42.833Z,9.05
2023-04-16T13:03:43.276Z,8.96
2023-04-16T13:04:43.783Z,9.03
2023-04-16T13:05:43.264Z,9.08
2023-04-16T13:06:43.944Z,9.09
2023-04-16T13:07:44.472Z,9
2023-04-16T13:08:44.784Z,8.97
2023-04-16T13:09:45.712Z,8.93
2023-04-16T13:10:45.390Z,8.93
2023-04-16T13:11:46.293Z,8.97
2023-04-16T13:12:46.778Z,8.99
2023-04-16T13:13:47.260Z,9
2023-04-16T13:14:50.636Z,9.02
2023-04-16T13:16:49.803Z,9.02
2023-04-16T13:17:50.576Z,8.99
2023-04-16T13:18:50.469Z,9.05
2023-04-16T13:19:51.181Z,9.08
2023-04-16T13:20:51.521Z,8.95
2023-04-16T13:21:52.199Z,9.05
2023-04-16T13:22:52.844Z,8.99
2023-04-16T13:23:52.536Z,8.96
2023-04-16T13:24:53.239Z,8.92
2023-04-16T13:25:56.461Z,8.81
2023-04-16T13:27:54.871Z,8.78
2023-04-16T13:28:55.182Z,8.78
2023-04-16T13:29:56.204Z,8.79
2023-04-16T13:30:56.644Z,8.75
2023-04-16T13:31:57.498Z,8.79
2023-04-16T13:32:58.017Z,8.79
2023-04-16T13:33:58.612Z,8.75
2023-04-16T13:34:59.340Z,8.72
2023-04-16T13:36:00.091Z,8.66
2023-04-16T13:37:00.853Z,8.64
2023-04-16T13:38:01.249Z,8.61
2023-04-16T13:39:01.738Z,8.63
2023-04-16T13:40:02.239Z,8.63
2023-04-16T13:41:02.911Z,8.6
2023-04-16T13:42:03.648Z,8.53
2023-04-16T13:43:06.639Z,8.6
2023-04-16T13:44:04.381Z,8.61
2023-04-16T13:45:05.405Z,8.6
2023-04-16T13:46:06.225Z,8.59
2023-04-16T13:47:07.125Z,8.63